Time;durP1;ratioP1;P1;durP2;ratioP2;P2;SDS_P1;SDS_P2;PMS_P1;PMS_P2;Temp;Humidity;BMP_temperature;BMP_pressure;BME280_temperature;BME280_humidity;BME280_pressure;Samples;Min_cycle;Max_cycle;Signal;HPM_P1;HPM_P2
2022/09/16 00:01:40;;;;;;;8.85;4.28;;;;;;;21.55;62.22;94520.66;5070144;28;20668;-67
2022/09/16 00:04:06;;;;;;;6.07;3.88;;;;;;;21.12;63.83;94527.78;5071159;28;20234;-68
2022/09/16 00:06:33;;;;;;;9.65;3.80;;;;;;;21.20;62.93;94535.72;5070276;28;20252;-67
2022/09/16 00:09:00;;;;;;;13.10;3.50;;;;;;;21.15;64.34;94520.59;5073244;28;20199;-68
2022/09/16 00:11:27;;;;;;;6.90;3.80;;;;;;;21.20;63.51;94525.38;5073963;28;20321;-68
2022/09/16 00:13:55;;;;;;;6.75;3.50;;;;;;;21.25;61.97;94528.44;5074652;28;20194;-68
2022/09/16 00:16:25;;;;;;;11.85;3.42;;;;;;;21.33;61.78;94532.00;5073933;28;20194;-69
2022/09/16 00:18:54;;;;;;;7.40;3.85;;;;;;;21.40;61.70;94534.88;5074753;28;20741;-68
2022/09/16 00:21:21;;;;;;;8.38;3.22;;;;;;;21.44;61.05;94531.09;5074290;28;20204;-69
2022/09/16 00:23:47;;;;;;;8.68;3.65;;;;;;;21.26;62.65;94528.31;5074069;28;20672;-67
2022/09/16 00:26:14;;;;;;;17.58;4.07;;;;;;;21.11;63.99;94526.13;5073923;28;20236;-69
2022/09/16 00:28:41;;;;;;;11.00;4.13;;;;;;;21.18;62.93;94511.75;5073866;28;20672;-69
2022/09/16 00:31:10;;;;;;;7.25;3.58;;;;;;;20.87;64.87;94523.81;5074211;28;20598;-69
2022/09/16 00:33:36;;;;;;;5.63;3.25;;;;;;;21.02;63.99;94507.88;5074081;28;20202;-70
2022/09/16 00:36:08;;;;;;;9.45;4.00;;;;;;;20.89;64.79;94517.59;5073861;28;20205;-68
2022/09/16 00:38:35;;;;;;;10.45;3.95;;;;;;;20.89;64.52;94512.41;5074165;28;20260;-69
2022/09/16 00:41:02;;;;;;;7.18;4.57;;;;;;;20.93;64.75;94518.16;5073771;28;20203;-67
2022/09/16 00:43:29;;;;;;;8.23;3.63;;;;;;;20.97;64.97;94524.72;5073535;28;20198;-68
2022/09/16 00:46:02;;;;;;;5.75;3.35;;;;;;;21.06;63.46;94519.56;5074426;28;20205;-68
2022/09/16 00:48:32;;;;;;;9.50;4.35;;;;;;;21.01;64.04;94519.16;5074262;28;20647;-68
2022/09/16 00:51:02;;;;;;;8.02;3.75;;;;;;;21.16;64.46;94524.81;5073703;28;20198;-69
2022/09/16 00:53:33;;;;;;;9.80;3.78;;;;;;;21.26;63.58;94524.91;5073465;28;20278;-67
2022/09/16 00:56:04;;;;;;;7.60;3.83;;;;;;;21.31;63.10;94522.72;5074158;28;20194;-68
2022/09/16 00:58:37;;;;;;;6.72;3.55;;;;;;;21.22;63.98;94520.94;5073748;28;20679;-68
2022/09/16 01:01:05;;;;;;;5.47;3.80;;;;;;;20.86;66.35;94520.41;5073802;28;20256;-66
2022/09/16 01:03:37;;;;;;;10.68;3.90;;;;;;;20.67;66.38;94528.03;5073211;28;20230;-68
2022/09/16 01:06:05;;;;;;;5.90;3.58;;;;;;;20.55;66.96;94529.84;5073379;28;20360;-68
2022/09/16 01:08:32;;;;;;;7.65;3.50;;;;;;;20.82;65.00;94531.94;5073254;28;20271;-68
2022/09/16 01:10:58;;;;;;;12.57;3.67;;;;;;;20.93;64.58;94529.31;5072743;28;20671;-68
2022/09/16 01:13:25;;;;;;;6.43;4.18;;;;;;;21.01;64.42;94542.41;5072912;28;20249;-68
2022/09/16 01:16:01;;;;;;;8.80;3.72;;;;;;;20.85;66.25;94542.03;5072727;28;20734;-68
2022/09/16 01:18:36;;;;;;;10.48;4.28;;;;;;;20.68;66.86;94553.75;5072426;28;20260;-68
2022/09/16 01:21:31;;;;;;;8.10;3.92;;;;;;;20.95;65.37;94536.94;5072556;28;20251;-68
2022/09/16 01:24:20;;;;;;;11.55;3.80;;;;;;;20.77;67.07;94541.84;5073209;28;20194;-70
2022/09/16 01:27:16;;;;;;;10.60;4.03;;;;;;;20.76;66.52;94545.38;5056077;28;20202;-68
2022/09/16 01:30:03;;;;;;;5.15;3.42;;;;;;;20.79;65.93;94542.53;5073016;28;20201;-69
2022/09/16 01:32:39;;;;;;;10.43;3.85;;;;;;;21.00;63.84;94540.78;5073104;28;20217;-69
2022/09/16 01:35:14;;;;;;;5.63;3.55;;;;;;;20.85;65.52;94529.09;5072850;28;20198;-67
2022/09/16 01:37:50;;;;;;;9.02;3.35;;;;;;;20.73;66.09;94524.16;5072844;28;20253;-68
2022/09/16 01:40:27;;;;;;;4.18;3.20;;;;;;;20.78;64.41;94515.09;5072480;28;20292;-68
2022/09/16 01:43:01;;;;;;;7.95;3.47;;;;;;;20.85;64.78;94516.19;5072465;28;20735;-69
2022/09/16 01:45:38;;;;;;;8.65;3.40;;;;;;;20.88;63.22;94523.69;5072806;28;20198;-68
2022/09/16 01:48:12;;;;;;;6.60;3.63;;;;;;;21.01;63.24;94526.09;5072761;28;20202;-69
2022/09/16 01:50:45;;;;;;;7.93;3.72;;;;;;;21.08;64.29;94516.88;5072102;28;20234;-69
2022/09/16 01:53:16;;;;;;;7.53;2.65;;;;;;;20.67;64.58;94530.63;5072459;28;20272;-69
2022/09/16 01:55:50;;;;;;;8.05;3.20;;;;;;;20.73;64.12;94517.22;5072035;28;20660;-68
2022/09/16 01:58:23;;;;;;;3.75;3.10;;;;;;;20.81;64.03;94529.47;5072186;28;20325;-67
2022/09/16 02:00:55;;;;;;;6.93;2.65;;;;;;;20.70;64.10;94522.63;5072100;28;20604;-68
2022/09/16 02:03:29;;;;;;;4.82;3.05;;;;;;;20.74;64.05;94515.47;5071907;28;20190;-68
2022/09/16 02:06:00;;;;;;;6.90;3.33;;;;;;;20.94;63.54;94525.78;5071727;28;20222;-68
2022/09/16 02:08:33;;;;;;;13.48;3.35;;;;;;;20.74;63.04;94518.88;5072146;28;20636;-67
2022/09/16 02:11:01;;;;;;;8.13;3.60;;;;;;;20.79;62.96;94518.50;5072123;28;20198;-67
2022/09/16 02:13:32;;;;;;;6.00;3.15;;;;;;;20.70;63.35;94512.31;5071511;28;20223;-68
2022/09/16 02:16:04;;;;;;;5.25;2.90;;;;;;;20.90;62.46;94518.41;5071644;28;20260;-69
2022/09/16 02:18:36;;;;;;;6.78;3.10;;;;;;;20.95;62.39;94519.66;5072018;28;20248;-70
2022/09/16 02:21:07;;;;;;;5.28;2.75;;;;;;;20.92;62.53;94517.34;5071350;28;20252;-68
2022/09/16 02:23:39;;;;;;;8.45;3.33;;;;;;;20.91;62.55;94514.88;5071673;28;20672;-67
2022/09/16 02:26:09;;;;;;;10.15;3.42;;;;;;;20.74;64.24;94513.69;5071231;28;20676;-69
2022/09/16 02:28:41;;;;;;;13.05;4.00;;;;;;;20.86;64.09;94512.66;5072114;28;20201;-69
2022/09/16 02:31:09;;;;;;;8.98;3.35;;;;;;;20.99;63.35;94518.47;5071335;28;20264;-68
2022/09/16 02:33:44;;;;;;;7.18;3.17;;;;;;;21.02;62.97;94520.81;5072217;28;20226;-68
2022/09/16 02:36:14;;;;;;;8.80;2.95;;;;;;;20.82;63.15;94516.44;5072478;28;20220;-67
2022/09/16 02:38:45;;;;;;;8.00;3.72;;;;;;;20.73;64.44;94517.22;5072330;28;20737;-68
2022/09/16 02:41:13;;;;;;;7.82;3.30;;;;;;;20.69;64.61;94521.00;5072377;28;20551;-67
2022/09/16 02:43:41;;;;;;;6.05;3.05;;;;;;;20.52;65.30;94526.72;5072469;28;20559;-68
2022/09/16 02:46:15;;;;;;;5.05;2.90;;;;;;;20.51;65.29;94532.81;5072012;28;20294;-67
2022/09/16 02:48:55;;;;;;;6.32;3.17;;;;;;;20.44;65.96;94516.19;5071861;28;20197;-70
2022/09/16 02:51:32;;;;;;;11.60;3.10;;;;;;;20.65;65.56;94527.34;5070878;28;20202;-67
2022/09/16 02:54:06;;;;;;;4.78;2.80;;;;;;;20.19;66.54;94523.28;5071221;28;20279;-69
2022/09/16 02:56:34;;;;;;;5.63;3.38;;;;;;;20.29;66.25;94544.81;5071301;28;20249;-67
2022/09/16 02:59:02;;;;;;;10.63;3.60;;;;;;;20.10;66.46;94539.47;5071683;28;20228;-67
2022/09/16 03:01:32;;;;;;;11.73;3.78;;;;;;;20.13;67.06;94562.47;5071059;28;20206;-68
2022/09/16 03:04:01;;;;;;;9.70;4.07;;;;;;;19.89;68.71;94551.50;5071585;28;20230;-68
2022/09/16 03:06:31;;;;;;;8.07;3.33;;;;;;;20.12;67.92;94555.66;5071742;28;20289;-67
2022/09/16 03:09:01;;;;;;;5.93;3.05;;;;;;;20.20;67.11;94565.38;5071414;28;20222;-68
2022/09/16 03:11:53;;;;;;;5.32;3.17;;;;;;;20.27;66.86;94557.03;5071488;28;20209;-67
2022/09/16 03:14:37;;;;;;;8.30;3.33;;;;;;;20.29;66.81;94570.63;5071603;28;20632;-69
2022/09/16 03:17:13;;;;;;;8.85;3.53;;;;;;;20.15;66.91;94563.16;5071340;28;20182;-69
2022/09/16 03:19:53;;;;;;;6.47;3.22;;;;;;;20.26;67.09;94588.13;5071244;28;20652;-67
2022/09/16 03:22:31;;;;;;;8.25;3.65;;;;;;;20.38;66.88;94589.75;5071124;28;20619;-68
2022/09/16 03:25:05;;;;;;;7.45;3.75;;;;;;;20.58;66.26;94577.81;5070718;28;20263;-66
2022/09/16 03:27:37;;;;;;;7.85;3.40;;;;;;;20.79;64.94;94573.50;5071146;28;20201;-69
2022/09/16 03:30:07;;;;;;;6.90;3.42;;;;;;;20.74;67.02;94559.34;5070760;28;20206;-68
2022/09/16 03:32:38;;;;;;;9.38;3.10;;;;;;;20.51;69.10;94561.22;5070992;28;20225;-67
2022/09/16 03:35:11;;;;;;;6.13;4.38;;;;;;;20.48;68.74;94558.88;5071149;28;20246;-68
2022/09/16 03:37:40;;;;;;;11.20;4.00;;;;;;;20.40;69.01;94564.66;5070851;28;20202;-68
2022/09/16 03:40:10;;;;;;;10.50;3.92;;;;;;;20.18;71.04;94551.78;5071167;28;20205;-68
2022/09/16 03:42:39;;;;;;;9.60;3.60;;;;;;;20.33;71.10;94556.53;5073800;28;20255;-66
2022/09/16 03:45:06;;;;;;;6.90;3.60;;;;;;;20.32;72.46;94542.00;5075362;28;20198;-69
2022/09/16 03:47:33;;;;;;;6.07;3.38;;;;;;;20.44;72.12;94547.16;5074650;28;20259;-67
2022/09/16 03:50:00;;;;;;;5.00;3.97;;;;;;;20.44;71.75;94536.84;5074465;28;20260;-68
2022/09/16 03:52:28;;;;;;;11.35;4.40;;;;;;;20.24;73.42;94535.81;5074367;28;20703;-68
2022/09/16 03:54:55;;;;;;;11.13;4.25;;;;;;;20.40;72.59;94541.41;5074368;28;20202;-66
2022/09/16 03:57:21;;;;;;;8.60;5.10;;;;;;;20.17;72.37;94540.66;5075001;28;20236;-67
2022/09/16 03:59:48;;;;;;;10.32;4.40;;;;;;;20.07;73.55;94544.06;5074136;28;20210;-69
2022/09/16 04:02:15;;;;;;;12.68;5.32;;;;;;;20.11;73.59;94545.47;5074399;28;20672;-68
2022/09/16 04:04:41;;;;;;;10.45;4.82;;;;;;;20.08;73.64;94556.00;5074022;28;20234;-68
2022/09/16 04:07:08;;;;;;;14.27;4.13;;;;;;;20.12;72.79;94553.06;5074515;28;20218;-68
2022/09/16 04:09:37;;;;;;;11.02;5.97;;;;;;;20.19;72.54;94549.09;5074345;28;20195;-69
2022/09/16 04:12:06;;;;;;;21.77;11.95;;;;;;;20.08;72.64;94551.69;5073698;28;20712;-69
2022/09/16 04:14:33;;;;;;;14.95;10.20;;;;;;;20.11;72.37;94559.19;5074337;28;20222;-68
2022/09/16 04:17:00;;;;;;;19.73;5.55;;;;;;;19.99;72.33;94562.75;5073839;28;20704;-68
2022/09/16 04:19:26;;;;;;;11.00;4.63;;;;;;;20.29;70.83;94575.78;5074384;28;20205;-68
2022/09/16 04:21:53;;;;;;;6.72;4.10;;;;;;;20.46;69.74;94591.72;5073721;28;20255;-69
2022/09/16 04:24:20;;;;;;;16.27;4.93;;;;;;;20.34;70.53;94603.81;5073971;28;20206;-68
2022/09/16 04:26:48;;;;;;;13.73;4.80;;;;;;;20.03;71.22;94602.84;5073913;28;20621;-68
2022/09/16 04:29:16;;;;;;;10.85;4.78;;;;;;;20.01;68.78;94597.78;5073760;28;20203;-68
2022/09/16 04:31:42;;;;;;;9.82;3.88;;;;;;;19.97;68.03;94598.97;5073645;28;20241;-68
2022/09/16 04:34:11;;;;;;;11.23;3.28;;;;;;;20.11;67.89;94594.47;5073452;28;20607;-68
2022/09/16 04:36:38;;;;;;;10.52;4.28;;;;;;;20.28;67.15;94594.81;5073729;28;20204;-68
2022/09/16 04:39:05;;;;;;;17.08;5.03;;;;;;;20.32;66.35;94596.19;5074008;28;20225;-67
2022/09/16 04:41:31;;;;;;;16.08;4.00;;;;;;;20.52;65.00;94588.66;5073222;28;20256;-67
2022/09/16 04:44:00;;;;;;;14.88;3.63;;;;;;;20.49;65.28;94597.47;5073800;28;20194;-69
2022/09/16 04:46:29;;;;;;;17.90;4.78;;;;;;;20.61;65.58;94590.50;5073443;28;20206;-68
2022/09/16 04:48:56;;;;;;;13.23;4.65;;;;;;;20.68;66.19;94601.97;5073620;28;20209;-70
2022/09/16 04:51:24;;;;;;;11.82;4.38;;;;;;;20.82;65.87;94596.50;5073462;28;20202;-67
2022/09/16 04:53:51;;;;;;;9.98;4.57;;;;;;;20.88;65.84;94603.75;5072806;28;20604;-69
2022/09/16 04:56:20;;;;;;;19.63;4.90;;;;;;;20.97;65.35;94597.03;5073652;28;20260;-68
2022/09/16 04:58:48;;;;;;;15.50;4.45;;;;;;;20.88;67.13;94598.59;5073425;28;20195;-66
2022/09/16 05:01:20;;;;;;;17.45;5.18;;;;;;;20.94;66.92;94595.53;5072947;28;20199;-67
2022/09/16 05:03:48;;;;;;;10.18;4.78;;;;;;;20.85;67.31;94591.09;5072812;28;20230;-69
2022/09/16 05:06:17;;;;;;;18.27;4.78;;;;;;;21.11;65.70;94590.72;5073059;28;20221;-69
2022/09/16 05:08:44;;;;;;;12.85;5.20;;;;;;;21.45;63.25;94587.03;5072977;28;20643;-68
2022/09/16 05:11:12;;;;;;;13.55;4.20;;;;;;;21.56;63.18;94588.69;5072939;28;20222;-69
2022/09/16 05:13:39;;;;;;;14.52;5.63;;;;;;;21.58;64.04;94577.28;5073337;28;20303;-68
2022/09/16 05:16:08;;;;;;;14.40;4.97;;;;;;;21.49;65.03;94597.94;5073025;28;20734;-69
2022/09/16 05:18:37;;;;;;;10.52;5.05;;;;;;;22.00;64.58;94592.69;5072739;28;20253;-68
2022/09/16 05:21:06;;;;;;;16.85;5.60;;;;;;;22.71;61.54;94577.84;5072342;28;20254;-69
2022/09/16 05:23:33;;;;;;;13.93;4.68;;;;;;;23.72;58.34;94574.72;5073260;28;20198;-69
2022/09/16 05:26:04;;;;;;;19.38;5.30;;;;;;;24.58;54.80;94572.59;5073454;28;20194;-70
2022/09/16 05:28:30;;;;;;;15.45;6.45;;;;;;;24.90;53.52;94567.69;5073022;28;20202;-69
2022/09/16 05:31:07;;;;;;;22.40;7.25;;;;;;;25.85;51.62;94568.69;5073557;28;20202;-69
2022/09/16 05:33:35;;;;;;;34.40;8.00;;;;;;;26.71;49.44;94561.47;5073136;28;20653;-68
2022/09/16 05:36:04;;;;;;;39.90;9.05;;;;;;;28.16;46.28;94558.81;5072846;28;20202;-68
2022/09/16 05:38:31;;;;;;;17.30;6.80;;;;;;;28.79;44.43;94553.38;5072147;28;20198;-69
2022/09/16 05:40:58;;;;;;;23.92;7.13;;;;;;;28.72;43.38;94545.41;5073812;28;20202;-69
2022/09/16 05:43:25;;;;;;;20.27;7.22;;;;;;;28.65;44.33;94551.53;5072445;28;20190;-68
2022/09/16 05:45:52;;;;;;;25.48;7.32;;;;;;;28.56;44.15;94542.09;5072809;28;20639;-68
2022/09/16 05:48:19;;;;;;;24.98;6.80;;;;;;;28.76;44.03;94535.41;5072517;28;20252;-69
2022/09/16 05:50:52;;;;;;;19.52;6.90;;;;;;;29.36;41.86;94545.91;5072068;28;20249;-68
2022/09/16 05:53:19;;;;;;;31.27;14.05;;;;;;;30.07;40.59;94546.31;5072050;28;20237;-67
2022/09/16 05:55:54;;;;;;;20.05;12.88;;;;;;;29.69;40.55;94551.66;5072338;28;20202;-70
2022/09/16 05:58:21;;;;;;;26.50;8.95;;;;;;;28.80;42.90;94549.78;5072472;28;20264;-69
2022/09/16 06:00:48;;;;;;;23.08;7.88;;;;;;;29.10;42.45;94548.09;5072213;28;20271;-69
2022/09/16 06:03:15;;;;;;;18.23;5.70;;;;;;;28.57;43.46;94551.56;5071703;28;20277;-70
2022/09/16 06:05:41;;;;;;;21.90;8.68;;;;;;;28.31;43.94;94549.28;5070950;28;20223;-68
2022/09/16 06:08:09;;;;;;;18.65;5.93;;;;;;;28.69;43.08;94552.81;5071769;28;20194;-67
2022/09/16 06:10:38;;;;;;;22.60;6.50;;;;;;;29.69;41.02;94543.81;5072178;28;20256;-68
2022/09/16 06:13:04;;;;;;;16.80;5.45;;;;;;;30.82;38.03;94545.97;5072012;28;20206;-67
2022/09/16 06:15:31;;;;;;;13.07;5.07;;;;;;;31.90;35.56;94544.81;5072551;28;20203;-70
2022/09/16 06:17:58;;;;;;;10.45;3.88;;;;;;;32.53;32.88;94542.84;5072113;28;20224;-68
2022/09/16 06:20:25;;;;;;;13.23;3.10;;;;;;;32.02;33.21;94543.22;5072207;28;20198;-69
2022/09/16 06:22:51;;;;;;;13.18;4.15;;;;;;;31.43;34.00;94538.41;5071927;28;20206;-69
2022/09/16 06:25:20;;;;;;;10.40;3.28;;;;;;;31.07;34.18;94539.31;5071937;28;20198;-68
2022/09/16 06:27:46;;;;;;;11.25;3.95;;;;;;;30.34;35.86;94531.72;5072404;28;20202;-68
2022/09/16 06:30:13;;;;;;;9.27;3.60;;;;;;;30.02;36.90;94527.72;5071711;28;20194;-69
2022/09/16 06:32:40;;;;;;;12.80;3.90;;;;;;;29.94;37.43;94533.84;5071829;28;20198;-67
2022/09/16 06:35:08;;;;;;;13.75;4.15;;;;;;;30.11;37.62;94524.00;5071835;28;20226;-68
2022/09/16 06:37:35;;;;;;;11.63;3.30;;;;;;;30.16;36.37;94534.75;5071398;28;20714;-69
2022/09/16 06:40:02;;;;;;;14.05;3.78;;;;;;;29.45;37.66;94536.19;5072317;28;20198;-70
2022/09/16 06:42:31;;;;;;;16.05;4.00;;;;;;;28.57;39.25;94541.13;5073668;28;20190;-68
2022/09/16 06:44:58;;;;;;;11.38;4.30;;;;;;;28.93;39.52;94546.63;5073304;28;20671;-67
2022/09/16 06:47:25;;;;;;;12.23;3.65;;;;;;;30.58;37.31;94543.72;5072249;28;20206;-68
2022/09/16 06:49:52;;;;;;;28.95;16.73;;;;;;;31.97;33.86;94545.63;5071584;28;20271;-69
2022/09/16 06:52:19;;;;;;;10.43;4.43;;;;;;;32.89;32.25;94548.63;5070879;28;20722;-68
2022/09/16 06:54:47;;;;;;;18.63;5.18;;;;;;;34.75;30.31;94541.97;5071487;28;20218;-69
2022/09/16 06:57:13;;;;;;;12.43;4.32;;;;;;;36.11;27.87;94540.25;5071351;28;20198;-69
2022/09/16 06:59:42;;;;;;;18.90;7.40;;;;;;;37.34;26.43;94536.38;5071598;28;20202;-67
2022/09/16 07:02:10;;;;;;;10.32;5.35;;;;;;;36.92;26.72;94533.72;5071340;28;20201;-67
2022/09/16 07:04:36;;;;;;;17.83;11.07;;;;;;;37.09;26.17;94534.69;5071518;28;20262;-70
2022/09/16 07:07:04;;;;;;;11.20;4.05;;;;;;;37.61;25.21;94542.03;5071028;28;20206;-67
2022/09/16 07:09:34;;;;;;;8.85;4.50;;;;;;;37.33;25.38;94548.00;5072526;28;20251;-70
2022/09/16 07:12:01;;;;;;;12.57;4.05;;;;;;;37.84;25.04;94546.53;5073162;28;20202;-70
2022/09/16 07:14:31;;;;;;;7.88;3.45;;;;;;;38.82;23.51;94545.63;5073407;28;20222;-67
2022/09/16 07:16:59;;;;;;;9.15;5.13;;;;;;;38.21;24.26;94541.75;5071250;28;20190;-67
2022/09/16 07:19:26;;;;;;;10.77;3.33;;;;;;;38.76;23.68;94539.41;5070722;28;20628;-68
2022/09/16 07:21:53;;;;;;;12.32;4.72;;;;;;;38.34;23.98;94530.88;5071408;28;20256;-68
2022/09/16 07:24:20;;;;;;;8.85;3.50;;;;;;;38.72;24.27;94527.63;5070847;28;20194;-68
2022/09/16 07:26:46;;;;;;;9.00;4.07;;;;;;;40.21;21.64;94530.50;5070936;28;20646;-68
2022/09/16 07:29:15;;;;;;;7.38;3.72;;;;;;;39.13;23.46;94535.28;5070680;28;20199;-69
2022/09/16 07:31:42;;;;;;;12.25;3.05;;;;;;;39.68;22.46;94534.56;5070289;28;20202;-67
2022/09/16 07:34:12;;;;;;;5.32;3.15;;;;;;;38.70;23.26;94532.38;5071224;28;20607;-69
2022/09/16 07:36:41;;;;;;;11.32;3.65;;;;;;;38.68;23.95;94532.63;5070072;28;20628;-69
2022/09/16 07:39:08;;;;;;;9.35;3.22;;;;;;;38.97;23.30;94537.91;5070777;28;20672;-68
2022/09/16 07:41:37;;;;;;;8.50;3.75;;;;;;;37.63;24.65;94524.81;5071293;28;20206;-68
2022/09/16 07:44:05;;;;;;;15.05;5.00;;;;;;;36.78;25.58;94503.97;5071353;28;20191;-70
2022/09/16 07:46:34;;;;;;;10.23;3.40;;;;;;;37.15;25.14;94514.41;5071127;28;20195;-68
2022/09/16 07:49:02;;;;;;;10.65;3.05;;;;;;;37.92;24.59;94509.84;5070826;28;20194;-70
2022/09/16 07:51:31;;;;;;;7.85;3.20;;;;;;;38.92;23.38;94505.94;5071016;28;20198;-69
2022/09/16 07:54:01;;;;;;;13.27;4.50;;;;;;;37.91;24.75;94502.91;5070535;28;20280;-67
2022/09/16 07:56:29;;;;;;;10.73;3.08;;;;;;;37.88;23.98;94523.78;5071356;28;20195;-69
2022/09/16 07:58:57;;;;;;;11.80;3.28;;;;;;;38.03;24.29;94508.22;5071154;28;20255;-69
2022/09/16 08:01:24;;;;;;;22.25;6.40;;;;;;;37.41;24.66;94500.75;5070197;28;20190;-68
2022/09/16 08:03:51;;;;;;;16.48;4.28;;;;;;;35.92;26.58;94503.41;5070283;28;20230;-70
2022/09/16 08:06:20;;;;;;;11.40;4.43;;;;;;;35.32;26.94;94505.84;5070274;28;20732;-69
2022/09/16 08:08:51;;;;;;;33.25;19.50;;;;;;;34.24;29.18;94497.16;5070593;28;20206;-69
2022/09/16 08:11:17;;;;;;;8.73;3.63;;;;;;;33.16;30.57;94495.97;5070373;28;20271;-68
2022/09/16 08:13:45;;;;;;;6.82;3.50;;;;;;;33.10;30.73;94490.50;5069986;28;20671;-66
2022/09/16 08:16:14;;;;;;;10.00;3.45;;;;;;;33.04;31.08;94496.59;5070142;28;20202;-68
2022/09/16 08:18:42;;;;;;;9.13;3.75;;;;;;;33.02;31.23;94488.06;5070862;28;20195;-68
2022/09/16 08:21:11;;;;;;;13.00;3.50;;;;;;;33.70;29.50;94491.25;5070290;28;20203;-68
2022/09/16 08:23:38;;;;;;;10.02;3.30;;;;;;;32.94;31.85;94490.09;5070338;28;20750;-70
2022/09/16 08:26:09;;;;;;;13.60;3.95;;;;;;;32.47;32.05;94490.00;5070183;28;20668;-67
2022/09/16 08:28:37;;;;;;;18.42;6.40;;;;;;;32.02;33.28;94480.16;5071051;28;20664;-68
2022/09/16 08:31:04;;;;;;;12.63;5.07;;;;;;;31.61;34.01;94488.84;5073918;28;20202;-71
2022/09/16 08:33:31;;;;;;;13.38;3.97;;;;;;;31.48;33.99;94483.50;5075391;28;20206;-69
2022/09/16 08:35:59;;;;;;;14.70;3.85;;;;;;;31.53;33.77;94481.09;5074066;28;20707;-69
2022/09/16 08:38:26;;;;;;;10.23;3.10;;;;;;;31.53;34.05;94475.84;5073550;28;20199;-68
2022/09/16 08:40:57;;;;;;;9.07;3.20;;;;;;;31.31;35.51;94475.13;5074785;28;20233;-67
2022/09/16 08:43:35;;;;;;;8.77;2.80;;;;;;;31.07;34.09;94476.34;5074615;28;20202;-68
2022/09/16 08:46:10;;;;;;;17.60;3.28;;;;;;;30.71;35.98;94462.50;5074628;28;20201;-68
2022/09/16 08:48:46;;;;;;;15.98;4.82;;;;;;;30.59;36.22;94461.41;5073815;28;20201;-68
2022/09/16 08:51:18;;;;;;;12.52;3.80;;;;;;;30.40;36.30;94468.06;5073651;28;20194;-69
2022/09/16 08:53:49;;;;;;;12.35;3.70;;;;;;;30.22;36.92;94465.84;5074102;28;20206;-67
2022/09/16 08:56:21;;;;;;;9.88;4.20;;;;;;;29.83;36.90;94465.38;5073297;28;20256;-67
2022/09/16 08:58:53;;;;;;;7.35;2.92;;;;;;;29.63;37.56;94460.72;5073114;28;20202;-69
2022/09/16 09:01:27;;;;;;;15.88;5.00;;;;;;;29.23;38.94;94468.97;5073325;28;20207;-68
2022/09/16 09:03:54;;;;;;;13.77;4.28;;;;;;;28.93;39.90;94470.78;5072847;28;20298;-70
2022/09/16 09:06:32;;;;;;;9.43;3.95;;;;;;;28.73;39.19;94473.00;5073454;28;20272;-67
2022/09/16 09:09:08;;;;;;;8.00;3.28;;;;;;;28.40;40.63;94478.50;5072879;28;20205;-69
2022/09/16 09:11:41;;;;;;;13.93;3.38;;;;;;;28.40;41.05;94472.47;5072798;28;20255;-68
2022/09/16 09:14:26;;;;;;;8.57;3.22;;;;;;;28.36;41.56;94477.22;5072738;28;20194;-69
2022/09/16 09:17:03;;;;;;;10.52;3.53;;;;;;;28.41;41.52;94476.72;5072674;28;20233;-69
2022/09/16 09:19:45;;;;;;;10.43;3.05;;;;;;;28.43;40.84;94478.16;5073046;28;20201;-70
2022/09/16 09:22:27;;;;;;;12.88;3.25;;;;;;;28.59;41.50;94476.41;5072639;28;20198;-69
2022/09/16 09:25:13;;;;;;;9.20;3.08;;;;;;;28.70;40.65;94479.44;5073432;28;20198;-69
2022/09/16 09:27:54;;;;;;;12.02;4.15;;;;;;;28.71;40.63;94465.34;5073263;28;20202;-70
2022/09/16 09:30:24;;;;;;;12.65;4.38;;;;;;;28.83;40.30;94468.38;5072647;28;20255;-69
2022/09/16 09:33:03;;;;;;;11.50;4.28;;;;;;;28.88;39.97;94466.06;5072766;28;20199;-70
2022/09/16 09:35:46;;;;;;;16.77;5.25;;;;;;;28.72;41.02;94466.16;5072771;28;20253;-68
2022/09/16 09:38:43;;;;;;;8.27;3.45;;;;;;;28.64;40.76;94468.84;5072524;28;20639;-67
2022/09/16 09:41:14;;;;;;;6.57;4.15;;;;;;;28.57;40.92;94471.34;5072675;28;20267;-67
2022/09/16 09:43:46;;;;;;;9.25;3.33;;;;;;;28.51;41.12;94479.06;5072779;28;20279;-68
2022/09/16 09:46:22;;;;;;;11.40;3.15;;;;;;;28.36;41.58;94476.41;5072925;28;20194;-68
2022/09/16 09:48:56;;;;;;;16.25;4.78;;;;;;;28.21;42.27;94486.78;5072656;28;20205;-68
2022/09/16 09:51:29;;;;;;;19.73;8.10;;;;;;;28.17;42.49;94488.09;5072366;28;20729;-67
2022/09/16 09:54:01;;;;;;;15.75;7.53;;;;;;;27.98;43.47;94484.09;5072308;28;20228;-68
2022/09/16 09:56:30;;;;;;;23.67;8.05;;;;;;;27.72;44.22;94489.59;5072271;28;20202;-68
2022/09/16 09:59:02;;;;;;;12.27;5.13;;;;;;;27.76;44.59;94497.91;5071962;28;20708;-67
2022/09/16 10:01:31;;;;;;;15.30;4.55;;;;;;;27.60;45.39;94511.84;5072243;28;20256;-67
2022/09/16 10:03:59;;;;;;;10.77;4.03;;;;;;;27.30;47.18;94517.78;5071609;28;20273;-67
2022/09/16 10:06:30;;;;;;;5.78;3.38;;;;;;;27.18;47.80;94538.19;5072617;28;20236;-68
2022/09/16 10:08:58;;;;;;;13.98;3.88;;;;;;;26.84;49.81;94540.94;5072516;28;20202;-66
2022/09/16 10:11:27;;;;;;;17.65;5.20;;;;;;;26.49;51.65;94543.81;5072074;28;20253;-68
2022/09/16 10:13:57;;;;;;;20.13;6.60;;;;;;;26.31;52.95;94551.78;5072027;28;20251;-68
2022/09/16 10:16:27;;;;;;;12.48;4.90;;;;;;;25.95;53.65;94564.19;5072274;28;20248;-68
2022/09/16 10:19:01;;;;;;;8.07;4.47;;;;;;;25.75;54.34;94585.22;5072320;28;20206;-68
2022/09/16 10:21:39;;;;;;;16.33;3.83;;;;;;;25.57;54.42;94618.25;5071514;28;20262;-68
2022/09/16 10:24:06;;;;;;;9.10;3.92;;;;;;;25.30;55.95;94660.03;5072123;28;20282;-66
2022/09/16 10:26:40;;;;;;;13.82;3.25;;;;;;;24.63;58.33;94658.72;5072383;28;20252;-67
2022/09/16 10:29:16;;;;;;;10.70;3.25;;;;;;;24.29;61.56;94669.69;5072092;28;20197;-66
2022/09/16 10:31:43;;;;;;;11.93;3.53;;;;;;;23.88;64.33;94696.88;5071506;28;20202;-67
2022/09/16 10:34:18;;;;;;;8.25;2.42;;;;;;;23.30;67.41;94703.88;5071825;28;20209;-69
2022/09/16 10:36:46;;;;;;;5.00;2.28;;;;;;;22.69;69.92;94710.09;5071304;28;20194;-67
2022/09/16 10:39:23;;;;;;;7.93;2.95;;;;;;;22.46;72.35;94707.84;5071315;28;20560;-68
2022/09/16 10:41:50;;;;;;;7.35;2.83;;;;;;;22.23;73.31;94717.56;5071311;28;20202;-69
2022/09/16 10:44:22;;;;;;;3.63;2.60;;;;;;;22.26;73.19;94732.84;5071896;28;20198;-69
2022/09/16 10:46:54;;;;;;;6.78;3.13;;;;;;;21.98;75.07;94724.78;5071213;28;20694;-69
2022/09/16 10:49:26;;;;;;;10.25;2.90;;;;;;;21.91;76.06;94712.47;5071505;28;20625;-67
2022/09/16 10:51:52;;;;;;;8.13;3.92;;;;;;;21.84;77.33;94716.50;5070414;28;20216;-67
2022/09/16 10:54:26;;;;;;;4.90;2.70;;;;;;;21.78;78.70;94706.69;5071488;28;20672;-67
2022/09/16 10:56:54;;;;;;;3.92;2.50;;;;;;;21.67;79.69;94700.63;5070891;28;20289;-69
2022/09/16 10:59:21;;;;;;;6.00;3.10;;;;;;;21.45;80.99;94681.84;5071611;28;20256;-66
2022/09/16 11:01:56;;;;;;;7.38;3.20;;;;;;;21.52;80.71;94670.88;5071273;28;20267;-68
2022/09/16 11:04:53;;;;;;;6.93;3.15;;;;;;;21.75;79.75;94644.88;5071096;28;20290;-68
2022/09/16 11:07:34;;;;;;;7.53;2.88;;;;;;;21.68;81.81;94635.03;5071312;28;20291;-68
2022/09/16 11:10:11;;;;;;;5.78;2.75;;;;;;;21.88;79.91;94617.00;5070970;28;20255;-67
2022/09/16 11:12:50;;;;;;;6.28;2.92;;;;;;;22.12;78.42;94607.19;5071242;28;20263;-67
2022/09/16 11:15:29;;;;;;;6.90;2.80;;;;;;;22.27;79.11;94595.50;5071346;28;20790;-67
2022/09/16 11:18:10;;;;;;;6.03;2.92;;;;;;;22.64;78.77;94577.56;5071332;28;20252;-67
2022/09/16 11:20:50;;;;;;;7.25;5.47;;;;;;;23.16;74.95;94556.56;5071247;28;20259;-68
2022/09/16 11:23:37;;;;;;;4.10;1.80;;;;;;;23.41;68.38;94548.97;5070800;28;20251;-66
2022/09/16 11:26:10;;;;;;;4.40;2.22;;;;;;;23.61;68.36;94538.56;5071122;28;20247;-69
2022/09/16 11:29:02;;;;;;;3.63;1.98;;;;;;;23.56;68.23;94538.97;5071037;28;20204;-68
2022/09/16 11:31:39;;;;;;;4.40;2.15;;;;;;;23.78;67.73;94529.19;5041586;28;20566;-68
2022/09/16 11:34:19;;;;;;;6.05;2.13;;;;;;;23.74;66.36;94524.31;5071113;28;20202;-68
2022/09/16 11:37:01;;;;;;;6.80;4.30;;;;;;;23.70;66.63;94533.34;5070698;28;20225;-68
2022/09/16 11:39:41;;;;;;;11.45;7.70;;;;;;;24.00;66.06;94536.63;5071039;28;20194;-68
2022/09/16 11:42:16;;;;;;;4.95;2.50;;;;;;;24.30;64.79;94528.50;5070909;28;20202;-67
2022/09/16 11:44:48;;;;;;;6.18;3.05;;;;;;;23.74;67.62;94537.28;5070807;28;20208;-71
2022/09/16 11:47:32;;;;;;;6.93;3.50;;;;;;;23.79;68.29;94523.03;5070894;28;20205;-69